Time;durP1;ratioP1;P1;durP2;ratioP2;P2;SDS_P1;SDS_P2;PMS_P1;PMS_P2;Temp;Humidity;BMP_temperature;BMP_pressure;BME280_temperature;BME280_humidity;BME280_pressure;Samples;Min_cycle;Max_cycle;Signal;HPM_P1;HPM_P2
2021/01/29 00:01:44;;;;;;;11.03;7.17;;;0.00;99.90;;;-2.28;100.00;99217.41;4984594;28;101046;-64
2021/01/29 00:04:11;;;;;;;12.93;7.83;;;-0.10;99.90;;;-2.31;100.00;99228.09;4989069;28;101259;-65
2021/01/29 00:06:38;;;;;;;10.80;8.13;;;-0.10;99.90;;;-2.30;100.00;99219.28;4991810;28;100120;-65
2021/01/29 00:09:05;;;;;;;11.43;7.97;;;0.00;99.90;;;-2.22;100.00;99221.38;4986274;28;100173;-65
2021/01/29 00:11:31;;;;;;;15.77;8.63;;;-0.30;99.90;;;-2.38;100.00;99224.22;4984664;28;100695;-65
2021/01/29 00:13:58;;;;;;;9.83;6.20;;;-0.10;99.90;;;-2.40;100.00;99218.22;4984946;28;100688;-65
2021/01/29 00:16:24;;;;;;;8.37;6.43;;;-0.30;99.90;;;-2.46;100.00;99209.94;4984349;28;100235;-65
2021/01/29 00:19:06;;;;;;;8.27;5.50;;;-0.40;99.90;;;-2.18;100.00;99210.59;4984355;28;100085;-65
2021/01/29 00:21:33;;;;;;;8.07;5.80;;;-0.40;99.90;;;-2.44;100.00;99210.66;4984104;28;101546;-65
2021/01/29 00:24:00;;;;;;;11.03;7.87;;;-0.50;99.90;;;-2.31;100.00;99203.66;4984603;28;100612;-65
2021/01/29 00:26:26;;;;;;;10.67;7.00;;;-0.50;99.90;;;-2.46;100.00;99205.53;4984926;28;100376;-66
2021/01/29 00:28:53;;;;;;;8.30;5.60;;;-0.50;99.90;;;-2.38;100.00;99208.50;4984748;28;100266;-66
2021/01/29 00:31:19;;;;;;;8.03;5.87;;;-0.60;99.90;;;-2.44;100.00;99206.28;4984318;28;101556;-65
2021/01/29 00:33:46;;;;;;;12.03;6.83;;;-0.50;99.90;;;-2.44;100.00;99197.56;4984539;28;99963;-66
2021/01/29 00:36:12;;;;;;;9.13;5.37;;;-0.60;99.90;;;-2.48;100.00;99199.59;4984292;28;99994;-65
2021/01/29 00:38:38;;;;;;;10.50;6.57;;;-0.50;99.90;;;-2.49;100.00;99194.44;4984362;28;100074;-65
2021/01/29 00:41:06;;;;;;;8.33;6.73;;;-0.60;99.90;;;-2.42;100.00;99195.69;4983422;28;100927;-65
2021/01/29 00:43:41;;;;;;;9.03;5.70;;;-0.60;99.90;;;-2.50;100.00;99201.47;4984282;28;100615;-65
2021/01/29 00:46:08;;;;;;;9.67;6.40;;;-0.60;99.90;;;-2.56;100.00;99201.84;4980684;28;100454;-66
2021/01/29 00:48:34;;;;;;;9.53;7.27;;;-0.60;99.90;;;-2.59;100.00;99197.66;4981111;28;100369;-65
2021/01/29 00:51:02;;;;;;;9.07;6.03;;;-0.70;99.90;;;-2.51;100.00;99197.16;4981385;28;102003;-66
2021/01/29 00:53:28;;;;;;;7.03;5.47;;;-0.60;99.90;;;-2.47;100.00;99197.81;4983493;28;100597;-64
2021/01/29 00:55:56;;;;;;;7.83;6.33;;;-0.80;99.90;;;-2.53;100.00;99192.03;4980520;27;100317;-65
2021/01/29 00:58:33;;;;;;;10.83;7.27;;;-0.80;99.90;;;-2.71;100.00;99190.59;4982212;28;100358;-65
2021/01/29 01:01:28;;;;;;;10.30;6.97;;;-0.80;99.90;;;-2.88;100.00;99195.28;4983788;28;101358;-65
2021/01/29 01:03:55;;;;;;;11.67;6.60;;;-0.80;99.90;;;-2.96;100.00;99190.53;4981976;28;102986;-65
2021/01/29 01:06:22;;;;;;;9.43;7.17;;;-0.80;99.90;;;-2.96;100.00;99190.53;4981000;28;99994;-65
2021/01/29 01:09:14;;;;;;;9.17;7.00;;;-0.90;99.90;;;-2.92;100.00;99186.78;4983426;28;100231;-65
2021/01/29 01:11:43;;;;;;;9.27;6.70;;;-0.90;99.90;;;-3.01;100.00;99182.16;4980951;28;102998;-65
2021/01/29 01:14:17;;;;;;;10.50;7.03;;;-0.90;99.90;;;-3.02;100.00;99183.09;4980401;28;100389;-65
2021/01/29 01:16:43;;;;;;;11.03;6.53;;;-0.90;99.90;;;-2.98;100.00;99181.97;4982368;28;100241;-64
2021/01/29 01:19:36;;;;;;;9.37;6.90;;;-0.40;99.90;;;-2.86;100.00;99173.31;4982975;28;100120;-65
2021/01/29 01:22:06;;;;;;;7.90;5.83;;;-0.90;99.90;;;-2.81;100.00;99168.59;4983410;28;100044;-64
2021/01/29 01:24:51;;;;;;;9.07;6.37;;;-0.70;99.90;;;-2.90;100.00;99154.34;4979496;28;100277;-64
2021/01/29 01:27:19;;;;;;;9.93;6.27;;;-0.70;99.90;;;-2.75;100.00;99157.75;4981890;28;100223;-64
2021/01/29 01:30:13;;;;;;;8.03;6.60;;;-0.70;99.90;;;-2.70;100.00;99167.88;4979598;28;100101;-64
2021/01/29 01:32:41;;;;;;;10.97;6.67;;;-0.70;99.90;;;-2.51;100.00;99170.13;4980554;28;102561;-64
2021/01/29 01:35:26;;;;;;;10.40;7.10;;;-0.50;99.90;;;-2.47;100.00;99172.41;4980638;28;100072;-64
2021/01/29 01:37:54;;;;;;;8.93;6.67;;;-0.50;99.90;;;-2.47;100.00;99172.41;4980814;28;100114;-65
2021/01/29 01:40:44;;;;;;;10.73;8.20;;;-0.40;99.90;;;-2.47;100.00;99172.41;4982466;28;100361;-64
2021/01/29 01:43:15;;;;;;;9.17;7.60;;;-0.30;99.90;;;-2.37;100.00;99180.53;4981607;28;102717;-65
2021/01/29 01:46:05;;;;;;;10.30;7.23;;;-0.30;99.90;;;-2.39;100.00;99177.16;4982349;28;100829;-65
2021/01/29 01:48:49;;;;;;;9.83;6.93;;;-0.20;99.90;;;-2.41;100.00;99185.13;4980375;28;99990;-65
2021/01/29 01:51:51;;;;;;;8.80;6.47;;;-0.20;99.90;;;-2.38;100.00;99184.06;4982643;28;100098;-64
2021/01/29 01:54:26;;;;;;;9.47;6.57;;;-0.10;99.90;;;-2.57;100.00;99182.69;4997110;27;102859;-66
2021/01/29 01:56:58;;;;;;;8.60;5.83;;;-0.20;99.90;;;-2.54;100.00;99184.25;4982164;28;100825;-66
2021/01/29 01:59:34;;;;;;;8.27;5.97;;;-0.20;99.90;;;-2.64;100.00;99173.56;4978670;28;100344;-66
2021/01/29 02:02:34;;;;;;;7.47;5.90;;;-0.20;99.90;;;-2.73;100.00;99152.41;4973209;28;100449;-66
2021/01/29 02:05:24;;;;;;;8.50;5.70;;;-0.40;99.90;;;-2.75;100.00;99143.81;4979897;28;100810;-66
2021/01/29 02:08:16;;;;;;;6.23;5.20;;;0.00;99.90;;;-2.45;100.00;99156.59;4982018;27;100906;-66
2021/01/29 02:11:02;;;;;;;8.53;6.57;;;-0.20;99.90;;;-2.59;100.00;99163.59;4981044;28;100031;-66
2021/01/29 02:13:37;;;;;;;9.27;6.17;;;-0.10;99.90;;;-2.55;100.00;99164.25;4979900;28;100374;-66
2021/01/29 02:16:36;;;;;;;8.13;5.73;;;0.00;99.90;;;-2.56;100.00;99165.19;4981039;28;101061;-66
2021/01/29 02:20:09;;;;;;;8.63;6.33;;;0.00;99.90;;;-2.43;100.00;99154.72;4980007;28;101609;-66
2021/01/29 02:23:20;;;;;;;7.60;6.33;;;0.00;99.90;;;-2.46;100.00;99145.28;4982214;28;100203;-66
2021/01/29 02:27:15;;;;;;;8.47;6.40;;;0.00;99.90;;;-2.66;100.00;99132.72;4977617;28;100677;-66
2021/01/29 02:30:07;;;;;;;8.10;5.67;;;0.00;99.90;;;-2.72;100.00;99138.38;4961432;28;101410;-66
2021/01/29 02:33:36;;;;;;;8.37;6.13;;;0.00;99.90;;;-2.62;100.00;99135.03;4980844;28;102169;-66
2021/01/29 02:36:48;;;;;;;14.17;7.40;;;0.00;99.90;;;-2.54;100.00;99126.63;4980293;28;100502;-66
2021/01/29 02:39:35;;;;;;;7.87;6.50;;;0.10;99.90;;;-2.66;100.00;99143.19;4997065;27;100090;-66
2021/01/29 02:42:20;;;;;;;7.97;5.77;;;0.00;99.90;;;-2.51;100.00;99142.16;4980375;28;102893;-66
2021/01/29 02:45:12;;;;;;;7.43;6.03;;;0.20;99.90;;;-2.55;100.00;99145.91;4959915;28;100896;-66
2021/01/29 02:48:11;;;;;;;8.53;6.13;;;0.20;99.90;;;-2.57;100.00;99135.53;4961988;28;100342;-66
2021/01/29 02:51:04;;;;;;;8.80;6.50;;;0.30;99.90;;;-2.53;100.00;99144.88;4968695;28;100221;-66
2021/01/29 02:53:59;;;;;;;8.13;6.20;;;0.20;99.90;;;-2.59;100.00;99142.66;4981458;28;101157;-66
2021/01/29 02:56:54;;;;;;;7.50;6.33;;;0.30;99.90;;;-2.59;100.00;99147.88;4981353;28;100324;-66
2021/01/29 03:00:01;;;;;;;8.17;6.73;;;0.30;99.90;;;-2.56;100.00;99141.63;4978641;28;100016;-66
2021/01/29 03:02:53;;;;;;;10.60;6.80;;;0.30;99.90;;;-2.60;100.00;99129.69;4979876;28;100172;-65
2021/01/29 03:05:38;;;;;;;7.83;6.60;;;0.30;99.90;;;-2.65;100.00;99121.28;4959435;28;102120;-65
2021/01/29 03:08:13;;;;;;;8.07;6.43;;;0.20;99.90;;;-2.64;100.00;99122.97;4961790;28;100410;-66
2021/01/29 03:11:13;;;;;;;9.07;7.00;;;0.10;99.90;;;-2.53;100.00;99110.81;4905439;28;100277;-65
2021/01/29 03:14:09;;;;;;;9.73;7.00;;;0.10;99.90;;;-2.59;100.00;99103.38;4959238;28;100165;-65
2021/01/29 03:16:57;;;;;;;10.20;5.80;;;0.10;99.90;;;-2.71;100.00;99098.97;4961776;28;100454;-66
2021/01/29 03:19:51;;;;;;;8.47;6.00;;;0.10;99.90;;;-2.70;100.00;99094.56;4960088;28;100327;-66
2021/01/29 03:22:42;;;;;;;8.50;5.77;;;0.80;99.90;;;-2.69;100.00;99093.63;4962531;28;100792;-65
2021/01/29 03:25:32;;;;;;;8.27;5.93;;;-0.10;99.90;;;-2.69;100.00;99085.78;4963790;28;100278;-66
2021/01/29 03:28:22;;;;;;;7.70;5.80;;;0.00;99.90;;;-2.71;100.00;99091.13;4962008;28;100358;-66
2021/01/29 03:31:13;;;;;;;9.03;6.47;;;-0.10;99.90;;;-2.65;100.00;99093.34;4964636;28;100025;-66
2021/01/29 03:34:04;;;;;;;9.00;6.07;;;-0.10;99.90;;;-2.68;100.00;99087.47;4962462;28;100138;-66
2021/01/29 03:36:57;;;;;;;8.40;6.10;;;0.10;99.90;;;-2.68;100.00;99090.91;4970510;28;100123;-66
2021/01/29 03:39:42;;;;;;;8.10;6.20;;;0.00;99.90;;;-2.63;100.00;99080.97;4990602;28;100159;-66
2021/01/29 03:42:36;;;;;;;10.77;6.20;;;0.00;99.90;;;-2.64;100.00;99073.22;4981966;28;100076;-65
2021/01/29 03:45:30;;;;;;;9.70;6.03;;;0.10;99.90;;;-2.57;100.00;99071.84;4981693;28;100185;-66
2021/01/29 03:48:26;;;;;;;7.40;5.87;;;0.10;99.90;;;-2.62;100.00;99064.31;4982635;28;100194;-66
2021/01/29 03:51:18;;;;;;;6.93;5.70;;;0.00;99.90;;;-2.59;100.00;99065.88;4983294;28;100756;-66
2021/01/29 03:54:07;;;;;;;8.33;6.07;;;0.10;99.90;;;-2.57;100.00;99061.38;4984379;28;100342;-67
2021/01/29 03:57:12;;;;;;;6.60;5.57;;;0.00;99.90;;;-2.51;100.00;99062.75;4983854;28;100374;-66
2021/01/29 04:00:12;;;;;;;8.87;6.50;;;0.10;99.90;;;-2.60;100.00;99051.97;4982431;28;100140;-66
2021/01/29 04:03:01;;;;;;;7.93;5.60;;;0.20;99.90;;;-2.61;100.00;99054.69;4984898;28;100342;-67
2021/01/29 04:05:57;;;;;;;10.03;6.60;;;0.10;99.90;;;-2.55;100.00;99052.47;4982810;28;100114;-66
2021/01/29 04:08:52;;;;;;;8.70;5.83;;;0.00;99.90;;;-2.51;100.00;99047.03;4981714;28;100207;-65
2021/01/29 04:11:45;;;;;;;8.47;6.20;;;0.20;99.90;;;-2.55;100.00;99043.78;4983614;28;100164;-66
2021/01/29 04:14:31;;;;;;;7.63;5.70;;;0.00;99.90;;;-2.59;100.00;99048.38;4982072;28;100715;-66
2021/01/29 04:17:00;;;;;;;10.00;6.10;;;0.00;99.90;;;-2.50;100.00;99043.47;4984459;28;100939;-66
2021/01/29 04:19:30;;;;;;;7.43;6.30;;;0.20;99.90;;;-2.54;100.00;99037.59;4984414;28;100047;-65
2021/01/29 04:22:03;;;;;;;7.33;5.57;;;0.10;99.90;;;-2.59;100.00;99034.44;4983746;28;100295;-65
2021/01/29 04:24:35;;;;;;;6.77;5.57;;;0.20;99.90;;;-2.59;100.00;99035.28;4983297;28;101220;-66
2021/01/29 04:27:08;;;;;;;7.77;6.00;;;0.10;99.90;;;-2.60;100.00;99033.63;4984230;28;100425;-66
2021/01/29 04:29:41;;;;;;;6.57;4.57;;;0.10;99.90;;;-2.65;100.00;99027.03;4984043;28;100116;-65
2021/01/29 04:32:13;;;;;;;6.90;5.23;;;0.00;99.90;;;-2.62;100.00;99024.22;4982663;27;100717;-64
2021/01/29 04:34:45;;;;;;;7.27;5.20;;;0.00;99.90;;;-2.64;100.00;99023.47;4984015;28;101031;-65
2021/01/29 04:37:19;;;;;;;6.77;5.00;;;0.20;99.90;;;-2.55;100.00;99017.59;4983692;28;100342;-65
2021/01/29 04:39:53;;;;;;;7.87;5.00;;;0.80;99.90;;;-2.60;100.00;99017.09;4965585;28;100156;-65
2021/01/29 04:42:39;;;;;;;6.17;4.27;;;0.10;99.90;;;-2.63;100.00;99014.69;4983950;28;100171;-65
2021/01/29 04:45:25;;;;;;;5.93;4.40;;;0.10;99.90;;;-2.59;100.00;99003.03;4983937;28;100571;-65
2021/01/29 04:47:58;;;;;;;5.90;4.47;;;0.00;99.90;;;-2.60;100.00;98998.75;4984232;28;100358;-65
2021/01/29 04:50:35;;;;;;;4.70;4.20;;;0.10;99.90;;;-2.62;100.00;98992.78;4981552;28;100386;-65
2021/01/29 04:53:41;;;;;;;7.20;5.07;;;0.00;99.90;;;-2.63;100.00;98984.09;4983968;28;100036;-64
2021/01/29 04:56:57;;;;;;;5.80;4.63;;;0.10;99.90;;;-2.63;100.00;98975.41;4987047;28;100505;-64
2021/01/29 04:59:41;;;;;;;8.20;5.57;;;0.00;99.90;;;-2.64;100.00;98964.09;4983415;28;100580;-65
2021/01/29 05:03:19;;;;;;;7.07;4.77;;;0.10;99.90;;;-2.64;100.00;98953.59;4983081;28;100185;-65
2021/01/29 05:06:50;;;;;;;9.47;4.63;;;-0.10;99.90;;;-2.60;100.00;98943.75;4949530;28;100061;-64
2021/01/29 05:10:31;;;;;;;9.70;5.47;;;0.00;99.90;;;-2.62;100.00;98938.63;4981216;28;100474;-65
2021/01/29 05:13:23;;;;;;;8.40;5.30;;;-0.30;99.90;;;-2.67;100.00;98932.03;4983281;28;100740;-65
2021/01/29 05:16:37;;;;;;;9.60;5.40;;;-0.30;99.90;;;-2.68;100.00;98930.34;4998573;27;100055;-64
2021/01/29 05:19:45;;;;;;;9.40;5.43;;;-0.30;99.90;;;-2.70;100.00;98922.59;4984041;28;99995;-65
2021/01/29 05:22:31;;;;;;;6.87;5.73;;;-0.40;99.90;;;-2.70;100.00;98924.38;4983087;28;100554;-64
2021/01/29 05:25:53;;;;;;;7.23;5.77;;;-0.40;99.90;;;-2.63;100.00;98923.88;4983284;28;100407;-68
2021/01/29 05:28:49;;;;;;;7.00;5.27;;;-0.40;99.90;;;-2.71;100.00;98912.25;4983510;28;100093;-65
2021/01/29 05:31:31;;;;;;;9.40;5.87;;;-0.30;99.90;;;-2.71;100.00;98913.06;4982770;28;100053;-64
2021/01/29 05:34:42;;;;;;;8.23;5.83;;;-0.30;99.90;;;-2.71;100.00;98901.75;4981124;28;101465;-64
2021/01/29 05:37:57;;;;;;;9.70;6.40;;;-0.30;99.90;;;-2.71;100.00;98897.38;4982906;28;101063;-64
2021/01/29 05:41:09;;;;;;;8.43;7.13;;;-0.40;99.90;;;-2.74;100.00;98878.44;4963390;28;100186;-65
2021/01/29 05:44:04;;;;;;;9.77;6.67;;;-0.40;99.90;;;-2.69;100.00;98881.56;4963205;28;100237;-63
2021/01/29 05:46:40;;;;;;;8.40;6.30;;;-0.30;99.90;;;-2.76;100.00;98868.06;4963069;28;101317;-62
2021/01/29 05:49:26;;;;;;;7.30;5.47;;;-0.30;99.90;;;-2.76;100.00;98872.47;4963244;28;100498;-63
2021/01/29 05:52:41;;;;;;;10.20;6.00;;;-0.40;99.90;;;-2.80;100.00;98863.16;4961717;28;100114;-63
2021/01/29 05:55:47;;;;;;;7.07;5.93;;;-0.50;99.90;;;-2.78;100.00;98877.81;4900586;28;100620;-62
2021/01/29 05:59:02;;;;;;;8.97;6.40;;;-0.40;99.90;;;-2.72;100.00;98869.50;4861885;28;101570;-64
2021/01/29 06:02:11;;;;;;;11.47;8.20;;;-0.40;99.90;;;-2.79;100.00;98859.59;4962762;28;100397;-64
2021/01/29 06:04:58;;;;;;;8.90;7.33;;;-1.20;99.90;;;-2.77;100.00;98845.47;4942672;28;100292;-65
2021/01/29 06:08:02;;;;;;;8.93;5.93;;;-0.60;99.90;;;-2.80;100.00;98843.06;4976133;28;100146;-65
2021/01/29 06:10:52;;;;;;;7.23;5.50;;;0.00;99.90;;;-2.81;100.00;98845.78;4982225;28;101206;-63
2021/01/29 06:13:52;;;;;;;6.83;5.80;;;-0.30;99.90;;;-2.82;100.00;98849.34;4983208;28;100338;-64
2021/01/29 06:16:47;;;;;;;7.93;4.83;;;-0.40;99.90;;;-2.83;100.00;98839.81;4982560;28;100104;-63
2021/01/29 06:19:34;;;;;;;8.03;4.80;;;-0.60;99.90;;;-2.83;100.00;98837.19;4983094;28;99872;-65
2021/01/29 06:22:28;;;;;;;8.53;5.17;;;-0.50;99.90;;;-2.80;100.00;98829.97;4982074;28;100597;-63
2021/01/29 06:25:49;;;;;;;8.27;4.67;;;-0.60;99.90;;;-2.84;100.00;98831.13;4979883;28;100238;-65
2021/01/29 06:29:00;;;;;;;9.20;4.87;;;-0.50;99.90;;;-2.82;100.00;98820.53;4970508;28;100076;-64
2021/01/29 06:32:10;;;;;;;8.63;6.23;;;-0.50;99.90;;;-2.83;100.00;98824.94;4982537;28;100074;-63
2021/01/29 06:35:03;;;;;;;9.90;5.70;;;-0.60;99.90;;;-2.84;100.00;98812.00;4953790;28;100238;-62
2021/01/29 06:37:41;;;;;;;7.50;6.10;;;-0.50;99.90;;;-2.81;100.00;98804.72;4982437;28;100146;-64
2021/01/29 06:40:19;;;;;;;9.63;6.17;;;-0.50;99.90;;;-2.84;100.00;98806.75;4981441;28;100224;-64
2021/01/29 06:43:06;;;;;;;9.60;6.37;;;-0.50;99.90;;;-2.84;100.00;98799.72;4982699;28;100193;-64
2021/01/29 06:46:10;;;;;;;9.70;7.03;;;-0.60;99.90;;;-2.84;100.00;98784.00;4981812;28;100687;-63
2021/01/29 06:49:06;;;;;;;6.77;6.00;;;-0.50;99.90;;;-2.81;100.00;98785.56;4981777;28;100691;-64
2021/01/29 06:52:17;;;;;;;9.77;5.70;;;-0.50;99.90;;;-2.84;100.00;98780.59;4976377;28;100185;-63
2021/01/29 06:55:11;;;;;;;9.30;6.23;;;-0.60;99.90;;;-2.78;100.00;98780.13;4981612;27;100083;-64
2021/01/29 06:58:23;;;;;;;11.73;8.40;;;-0.60;99.90;;;-2.80;100.00;98776.78;4981856;28;101023;-64
2021/01/29 07:01:28;;;;;;;8.60;6.77;;;-0.70;99.90;;;-2.82;100.00;98776.88;4982023;28;101537;-64
2021/01/29 07:05:01;;;;;;;8.90;6.70;;;-0.60;99.90;;;-2.80;100.00;98767.13;4982618;28;100063;-63
2021/01/29 07:07:41;;;;;;;7.73;5.93;;;-0.60;99.90;;;-2.80;100.00;98766.31;4978260;28;99994;-64
2021/01/29 07:10:47;;;;;;;7.53;5.40;;;-0.40;99.90;;;-2.76;100.00;98757.28;4980881;28;100206;-64
2021/01/29 07:13:31;;;;;;;8.70;5.60;;;-0.50;99.90;;;-2.74;100.00;98752.78;4981964;28;100285;-63
2021/01/29 07:16:20;;;;;;;8.83;6.93;;;-0.40;99.90;;;-2.72;100.00;98756.94;4979440;28;100021;-63
2021/01/29 07:19:08;;;;;;;10.53;6.57;;;-0.50;99.90;;;-2.73;100.00;98743.97;4982452;28;100135;-63
2021/01/29 07:22:31;;;;;;;8.43;5.97;;;-0.50;99.90;;;-2.69;100.00;98741.00;4979813;28;101098;-63
2021/01/29 07:25:06;;;;;;;9.47;5.43;;;-0.40;99.90;;;-2.67;100.00;98738.28;4956802;28;100576;-63
2021/01/29 07:27:45;;;;;;;7.87;4.97;;;-0.40;99.90;;;-2.69;100.00;98727.09;4981859;28;100168;-64
2021/01/29 07:30:53;;;;;;;6.93;5.63;;;-0.40;99.90;;;-2.65;100.00;98724.13;4981299;28;100541;-65
2021/01/29 07:33:31;;;;;;;7.33;6.17;;;-0.30;99.90;;;-2.66;100.00;98722.47;4961778;28;100948;-63
2021/01/29 07:36:23;;;;;;;6.80;5.67;;;-0.40;99.90;;;-2.67;100.00;98720.78;4961463;28;100804;-64
2021/01/29 07:39:39;;;;;;;7.93;5.53;;;-0.30;99.90;;;-2.63;100.00;98713.56;4961339;28;100066;-64
2021/01/29 07:42:24;;;;;;;9.37;6.77;;;-0.30;99.90;;;-2.64;100.00;98706.66;4961533;28;100091;-63
2021/01/29 07:45:03;;;;;;;9.73;6.73;;;-0.40;99.90;;;-2.59;100.00;98707.97;4965400;28;100743;-64
2021/01/29 07:47:51;;;;;;;7.60;6.10;;;-0.30;99.90;;;-2.56;100.00;98706.91;4981080;28;99844;-64
2021/01/29 07:50:28;;;;;;;8.50;5.37;;;-0.30;99.90;;;-2.59;100.00;98700.09;4995099;27;100077;-64
2021/01/29 07:53:02;;;;;;;7.00;5.57;;;-0.40;99.90;;;-2.60;100.00;98698.47;4981482;28;100337;-64
2021/01/29 07:55:47;;;;;;;7.80;6.07;;;-0.20;99.90;;;-2.55;100.00;98693.69;4979463;28;100630;-64
2021/01/29 07:58:34;;;;;;;8.17;6.10;;;-0.30;99.90;;;-2.55;100.00;98696.31;4981393;28;101482;-62
2021/01/29 08:01:20;;;;;;;11.47;9.90;;;-0.20;99.90;;;-2.53;100.00;98685.72;4965515;28;100048;-64
2021/01/29 08:04:36;;;;;;;9.33;6.50;;;-0.30;99.90;;;-2.48;100.00;98680.16;4981366;28;100144;-64
2021/01/29 08:07:14;;;;;;;10.23;6.73;;;-0.20;99.90;;;-2.34;100.00;98672.06;4960304;28;100596;-64
2021/01/29 08:09:45;;;;;;;7.97;4.93;;;-0.20;99.90;;;-2.45;100.00;98670.25;4984399;28;101103;-63
2021/01/29 08:12:17;;;;;;;5.97;4.70;;;-0.70;99.90;;;-2.44;100.00;98673.72;4984870;28;100142;-64
2021/01/29 08:15:18;;;;;;;6.43;5.37;;;0.90;99.90;;;-2.39;100.00;98661.13;4984547;28;100057;-63
2021/01/29 08:18:36;;;;;;;7.17;5.37;;;-0.10;99.90;;;-2.37;100.00;98653.97;4983954;28;101658;-63
2021/01/29 08:21:29;;;;;;;10.50;5.90;;;0.00;99.90;;;-2.34;100.00;98645.88;4975138;28;100859;-63
2021/01/29 08:24:06;;;;;;;8.57;6.03;;;0.00;99.90;;;-2.35;100.00;98642.41;4984026;28;100069;-64
2021/01/29 08:27:07;;;;;;;7.30;6.00;;;0.00;99.90;;;-2.30;100.00;98639.44;4984812;28;100379;-62
2021/01/29 08:30:16;;;;;;;7.27;5.23;;;0.10;99.90;;;-2.22;100.00;98635.28;4979023;28;100284;-63
2021/01/29 08:33:26;;;;;;;8.73;5.57;;;0.00;99.90;;;-2.25;100.00;98627.69;4982736;28;100512;-63
2021/01/29 08:36:16;;;;;;;8.20;6.23;;;0.10;99.90;;;-2.24;100.00;98613.63;4983321;28;101391;-64
2021/01/29 08:38:51;;;;;;;9.83;7.00;;;0.10;99.90;;;-2.18;100.00;98610.53;4985087;28;100098;-63
2021/01/29 08:41:26;;;;;;;8.07;6.27;;;0.30;99.90;;;-2.12;100.00;98611.00;4983615;28;100705;-65
2021/01/29 08:44:15;;;;;;;6.73;5.67;;;0.40;99.90;;;-2.18;100.00;98602.66;4983811;28;100684;-67
2021/01/29 08:46:59;;;;;;;7.23;5.83;;;0.20;99.90;;;-2.14;100.00;98598.03;4982953;28;100104;-63
2021/01/29 08:49:45;;;;;;;8.20;5.17;;;0.30;99.90;;;-2.19;100.00;98590.50;4983761;28;100282;-65
2021/01/29 08:52:33;;;;;;;8.53;5.50;;;0.40;99.90;;;-2.12;100.00;98588.25;4984029;28;101049;-64
2021/01/29 08:55:13;;;;;;;9.27;6.40;;;0.20;99.90;;;-2.16;100.00;98584.19;4983647;28;100581;-65
2021/01/29 08:57:53;;;;;;;7.83;5.70;;;0.40;99.90;;;-2.12;100.00;98579.56;4983287;28;99989;-63
2021/01/29 09:00:25;;;;;;;6.53;5.33;;;0.50;99.90;;;-2.10;100.00;98573.22;4983699;28;100203;-65
2021/01/29 09:03:18;;;;;;;9.53;5.77;;;0.30;99.90;;;-2.08;100.00;98571.31;4984055;28;101322;-65
2021/01/29 09:05:49;;;;;;;7.73;5.17;;;0.30;99.90;;;-2.06;100.00;98574.66;4984050;28;100847;-65
2021/01/29 09:08:20;;;;;;;9.67;5.47;;;0.20;99.90;;;-2.02;100.00;98564.78;4983895;28;99970;-65
2021/01/29 09:11:11;;;;;;;6.93;5.43;;;0.40;99.90;;;-2.07;100.00;98559.88;4984352;28;100184;-64
2021/01/29 09:13:41;;;;;;;6.37;5.20;;;0.30;99.90;;;-2.03;100.00;98556.09;4983596;28;100666;-63
2021/01/29 09:16:23;;;;;;;7.37;5.47;;;0.40;99.90;;;-2.02;100.00;98556.91;4983415;28;100524;-64
2021/01/29 09:19:00;;;;;;;7.97;5.37;;;0.30;99.90;;;-1.94;100.00;98544.03;4981707;27;100232;-65
2021/01/29 09:21:34;;;;;;;6.60;5.87;;;1.20;99.90;;;-1.85;100.00;98541.50;4982356;28;100356;-65
2021/01/29 09:24:17;;;;;;;7.27;5.70;;;0.30;99.90;;;-1.85;100.00;98538.88;4982686;28;101620;-65
2021/01/29 09:27:13;;;;;;;9.87;6.87;;;0.40;99.90;;;-1.72;100.00;98543.13;4982386;28;101289;-66
2021/01/29 09:29:51;;;;;;;12.70;8.07;;;0.50;99.90;;;-1.77;100.00;98533.03;4983569;28;100013;-66
2021/01/29 09:33:00;;;;;;;7.93;5.70;;;0.40;99.90;;;-1.76;100.00;98529.47;4983195;28;100208;-63
2021/01/29 09:35:39;;;;;;;4.43;3.07;;;0.60;99.90;;;-1.77;100.00;98521.72;4982899;28;101117;-63
2021/01/29 09:38:11;;;;;;;8.30;4.90;;;0.60;99.90;;;-1.75;100.00;98522.44;4987378;28;100406;-63
2021/01/29 09:40:59;;;;;;;7.67;6.13;;;0.50;99.90;;;-1.64;100.00;98520.59;4983110;28;100139;-64
2021/01/29 09:43:39;;;;;;;6.27;4.57;;;0.70;99.90;;;-1.66;100.00;98517.25;4983337;28;100358;-63
2021/01/29 09:46:05;;;;;;;6.67;4.87;;;0.70;99.90;;;-1.65;100.00;98510.22;4983212;28;100825;-63
2021/01/29 09:48:36;;;;;;;14.67;9.77;;;0.80;99.90;;;-1.66;100.00;98512.03;4983465;28;100404;-63
2021/01/29 09:51:17;;;;;;;15.67;9.30;;;0.80;99.90;;;-1.58;100.00;98512.22;4982568;28;100056;-64
2021/01/29 09:53:55;;;;;;;13.00;9.00;;;0.90;99.90;;;-1.51;100.00;98504.69;4983119;28;100262;-62
2021/01/29 09:56:25;;;;;;;15.53;10.03;;;0.80;99.90;;;-1.42;100.00;98501.31;4982242;28;100939;-61
2021/01/29 09:59:15;;;;;;;21.27;16.20;;;0.90;99.90;;;-1.43;100.00;98501.44;4980420;28;100958;-63
2021/01/29 10:01:47;;;;;;;7.17;5.17;;;0.90;99.90;;;-1.43;100.00;98494.41;4982952;28;100257;-62
2021/01/29 10:04:24;;;;;;;10.10;6.47;;;1.00;99.90;;;-1.34;100.00;98490.16;4982719;28;99988;-62
2021/01/29 10:06:55;;;;;;;10.80;6.20;;;1.00;99.90;;;-1.32;100.00;98483.00;4982229;28;100934;-63
2021/01/29 10:09:28;;;;;;;7.87;5.03;;;1.00;99.90;;;-1.31;100.00;98489.94;4982782;28;100571;-60
2021/01/29 10:12:07;;;;;;;7.27;6.07;;;1.00;99.90;;;-1.31;100.00;98482.88;4982122;28;100188;-62
2021/01/29 10:14:42;;;;;;;8.73;6.93;;;1.10;99.90;;;-1.33;100.00;98483.97;4978848;28;100415;-62
2021/01/29 10:17:21;;;;;;;7.83;6.23;;;1.10;99.90;;;-1.34;100.00;98477.88;4981969;28;101186;-61
2021/01/29 10:19:57;;;;;;;8.23;6.03;;;1.20;99.90;;;-1.25;100.00;98479.78;4982470;28;100035;-63
2021/01/29 10:23:04;;;;;;;11.17;7.30;;;1.10;99.90;;;-1.25;100.00;98479.78;4962807;28;100048;-62
2021/01/29 10:25:54;;;;;;;8.33;6.37;;;1.20;99.90;;;-1.28;100.00;98471.31;4969342;28;100306;-62
2021/01/29 10:28:44;;;;;;;11.70;7.27;;;1.30;99.90;;;-1.13;100.00;98470.88;4983135;28;101478;-63
2021/01/29 10:31:12;;;;;;;10.63;7.67;;;1.10;99.90;;;-1.23;100.00;98472.56;4986687;28;100336;-64
2021/01/29 10:33:40;;;;;;;10.27;7.53;;;1.20;99.90;;;-1.28;100.00;98460.81;4982844;28;100142;-63
2021/01/29 10:36:11;;;;;;;12.47;8.90;;;1.10;99.90;;;-1.25;100.00;98466.66;4982031;28;100135;-64
2021/01/29 10:38:44;;;;;;;12.57;8.07;;;1.10;99.90;;;-1.21;100.00;98464.56;4981923;28;100801;-64
2021/01/29 10:41:18;;;;;;;14.13;9.73;;;1.20;99.90;;;-1.19;100.00;98465.28;4982206;28;100077;-63
2021/01/29 10:43:52;;;;;;;19.73;13.70;;;1.20;99.90;;;-1.22;100.00;98457.66;4996189;27;100143;-63
2021/01/29 10:46:56;;;;;;;18.37;13.43;;;1.20;99.90;;;-1.22;100.00;98448.00;4981321;28;100035;-64
2021/01/29 10:49:31;;;;;;;14.63;9.57;;;1.20;99.90;;;-1.26;100.00;98445.78;4979417;28;101098;-63
2021/01/29 10:52:09;;;;;;;12.53;10.30;;;1.20;99.90;;;-1.25;100.00;98440.41;4982139;28;100611;-63
2021/01/29 10:54:39;;;;;;;13.33;10.70;;;1.10;99.90;;;-1.29;100.00;98435.53;4982721;28;100192;-63
2021/01/29 10:57:16;;;;;;;13.20;10.73;;;1.10;99.90;;;-1.32;100.00;98434.00;4979576;28;100384;-62
2021/01/29 10:59:51;;;;;;;13.83;10.70;;;1.20;99.90;;;-1.35;100.00;98436.88;4981002;28;101584;-65
2021/01/29 11:02:36;;;;;;;13.33;9.70;;;1.10;99.90;;;-1.43;100.00;98427.97;4982520;28;100580;-65
2021/01/29 11:05:08;;;;;;;12.60;9.27;;;1.20;99.90;;;-1.42;100.00;98430.47;4982053;28;100232;-64
2021/01/29 11:07:38;;;;;;;12.27;9.07;;;1.10;99.90;;;-1.46;100.00;98419.41;4981919;28;100192;-64
2021/01/29 11:10:18;;;;;;;11.17;7.80;;;1.20;99.90;;;-1.47;100.00;98428.22;4981385;28;101129;-64
2021/01/29 11:12:54;;;;;;;17.33;10.87;;;1.10;99.90;;;-1.42;100.00;98424.41;4981792;28;101436;-64
2021/01/29 11:15:26;;;;;;;10.23;7.50;;;1.00;99.90;;;-1.48;100.00;98412.63;4982062;28;100208;-65
2021/01/29 11:18:00;;;;;;;10.33;7.37;;;1.00;99.90;;;-1.55;100.00;98414.09;4982210;28;99932;-65
2021/01/29 11:20:31;;;;;;;11.93;7.33;;;0.90;99.90;;;-1.58;100.00;98409.94;4982076;28;100041;-66
2021/01/29 11:23:12;;;;;;;11.27;7.87;;;0.90;99.90;;;-1.55;100.00;98401.81;4981888;28;100760;-63
2021/01/29 11:25:55;;;;;;;7.93;6.10;;;0.90;99.90;;;-1.65;100.00;98392.22;4980854;28;100197;-62
2021/01/29 11:28:42;;;;;;;6.53;4.77;;;0.90;99.90;;;-1.76;100.00;98385.25;4981995;28;100274;-63